KRBL/RBL METAR and TAF weather

Enter ICAO airport designator
Station Type Date Time Source
KRBL METAR 2022/07/03 13:54 UTC NOAA

KRBL 031354Z AUTO 17004KT 10SM CLR 14/11 A2994 RMK AO2 SLP135 T01440106


Station Type Date Time Source
KRBL Decoded METAR 2022/07/03 13:54 UTC NOAA

RED BLUFF MUNICIPAL AIRPORT, CA, United States (KRBL) 40-09N 122-15W 104M
Jul 03, 2022 - 09:54 AM EDT / 2022.07.03 1354 UTC
Wind: from the S (170 degrees) at 5 MPH (4 KT):0
Visibility: 10 mile(s):0
Sky conditions: clear
Temperature: 57.9 F (14.4 C)
Dew Point: 51.1 F (10.6 C)
Relative Humidity: 77%
Pressure (altimeter): 29.94 in. Hg (1013 hPa)
ob: KRBL 031354Z AUTO 17004KT 10SM CLR 14/11 A2994 RMK AO2 SLP135 T01440106
cycle: 14

Station Type Date Time Source
KRBL TAF 2022/07/03 12:36 UTC NOAA

TAF KRBL 031135Z 0312/0412 17010KT P6SM FEW250
FM032000 16014G21KT P6SM BKN250
FM040500 17009KT P6SM BKN100

Example: see airport list